createdAt,value
2023-05-16T00:02:16.311Z,99.90
2023-05-16T00:04:46.102Z,99.90
2023-05-16T00:07:14.403Z,99.90
2023-05-16T00:09:42.595Z,99.90
2023-05-16T00:12:11.232Z,99.90
2023-05-16T00:14:39.599Z,99.90
2023-05-16T00:17:11.932Z,99.90
2023-05-16T00:19:42.103Z,99.90
2023-05-16T00:22:11.436Z,99.90
2023-05-16T00:24:39.734Z,99.90
2023-05-16T00:27:07.951Z,99.90
2023-05-16T00:29:36.047Z,99.90
2023-05-16T00:32:04.116Z,99.90
2023-05-16T00:34:33.676Z,99.90
2023-05-16T00:37:01.939Z,1.00
2023-05-16T00:39:30.909Z,99.90
2023-05-16T00:41:59.027Z,99.90
2023-05-16T00:44:27.156Z,99.90
2023-05-16T00:46:55.591Z,99.90
2023-05-16T00:49:23.692Z,99.90
2023-05-16T00:51:54.198Z,99.90
2023-05-16T00:54:25.967Z,1.00
2023-05-16T00:56:54.321Z,1.00
2023-05-16T00:59:22.526Z,1.00
2023-05-16T01:01:52.462Z,1.00
2023-05-16T01:04:21.629Z,1.00
2023-05-16T01:06:49.688Z,1.00
2023-05-16T01:09:19.430Z,1.00
2023-05-16T01:11:54.100Z,1.00
2023-05-16T01:14:30.642Z,1.00
2023-05-16T01:17:07.825Z,1.00
2023-05-16T01:19:52.415Z,1.00
2023-05-16T01:22:32.857Z,1.00
2023-05-16T01:25:12.842Z,1.00
2023-05-16T01:27:42.924Z,1.00
2023-05-16T01:30:19.120Z,1.00
2023-05-16T01:32:47.428Z,1.00
2023-05-16T01:35:17.834Z,1.00
2023-05-16T01:37:51.584Z,1.00
2023-05-16T01:40:43.993Z,1.00
2023-05-16T01:43:18.083Z,1.00
2023-05-16T01:45:52.121Z,1.00
2023-05-16T01:48:24.790Z,1.00
2023-05-16T01:50:57.578Z,1.00
2023-05-16T01:53:29.159Z,1.00
2023-05-16T01:56:01.072Z,1.00
2023-05-16T01:58:34.072Z,1.00
2023-05-16T02:01:04.334Z,1.00
2023-05-16T02:03:32.811Z,1.00
2023-05-16T02:06:01.540Z,1.00
2023-05-16T02:08:30.388Z,1.00
2023-05-16T02:10:58.528Z,14.30
2023-05-16T02:13:26.730Z,51.10
2023-05-16T02:15:56.171Z,87.70
2023-05-16T02:18:24.581Z,86.50
2023-05-16T02:20:53.474Z,99.90
2023-05-16T02:23:21.498Z,99.90
2023-05-16T02:25:49.911Z,99.90
2023-05-16T02:28:17.975Z,99.90
2023-05-16T02:30:46.142Z,99.90
2023-05-16T02:33:15.572Z,99.90
2023-05-16T02:35:43.738Z,99.90
2023-05-16T02:38:11.766Z,99.90
2023-05-16T02:40:39.841Z,99.90
2023-05-16T02:43:07.882Z,99.90
2023-05-16T02:45:37.047Z,99.90
2023-05-16T02:48:05.421Z,99.90
2023-05-16T02:50:34.928Z,99.90
2023-05-16T02:53:02.983Z,99.90
2023-05-16T02:55:31.075Z,99.90
2023-05-16T02:57:59.312Z,99.90
2023-05-16T03:00:27.392Z,99.90
2023-05-16T03:02:55.668Z,99.90
2023-05-16T03:05:26.229Z,99.90
2023-05-16T03:07:56.383Z,99.90
2023-05-16T03:10:24.496Z,99.90
2023-05-16T03:12:52.718Z,99.90
2023-05-16T03:15:20.885Z,99.90
2023-05-16T03:17:49.298Z,99.90
2023-05-16T03:20:17.342Z,1.00
2023-05-16T03:22:45.413Z,1.00
2023-05-16T03:25:14.884Z,1.00
2023-05-16T03:27:42.903Z,1.00
2023-05-16T03:30:11.472Z,1.00
2023-05-16T03:32:39.767Z,1.00
2023-05-16T03:35:08.239Z,1.00
2023-05-16T03:37:36.278Z,1.00
2023-05-16T03:40:05.824Z,1.00
2023-05-16T03:42:35.263Z,1.00
2023-05-16T03:45:03.364Z,1.00
2023-05-16T03:47:31.991Z,7.20
2023-05-16T03:50:00.240Z,54.00
2023-05-16T03:52:28.699Z,68.50
2023-05-16T03:54:57.009Z,99.00
2023-05-16T03:57:25.124Z,99.90
2023-05-16T03:59:54.735Z,99.90
2023-05-16T04:02:23.565Z,99.90
2023-05-16T04:04:52.208Z,99.90
2023-05-16T04:07:22.558Z,99.90
2023-05-16T04:09:53.151Z,99.90
2023-05-16T04:12:21.943Z,99.90
2023-05-16T04:14:50.571Z,99.90
2023-05-16T04:17:20.603Z,99.90
2023-05-16T04:19:49.603Z,99.90
2023-05-16T04:22:18.051Z,99.90
2023-05-16T04:24:46.842Z,99.90
2023-05-16T04:27:15.399Z,25.70
2023-05-16T04:29:43.978Z,1.00
2023-05-16T04:32:12.773Z,91.50
2023-05-16T04:34:45.653Z,1.00
2023-05-16T04:37:14.205Z,1.00
2023-05-16T04:39:43.613Z,1.00
2023-05-16T04:42:12.442Z,1.00
2023-05-16T04:44:41.091Z,1.00
2023-05-16T04:47:10.016Z,1.00
2023-05-16T04:49:38.488Z,1.00
2023-05-16T04:52:10.004Z,1.00
2023-05-16T04:54:40.215Z,1.00
2023-05-16T04:57:10.199Z,1.00
2023-05-16T04:59:39.261Z,1.00
2023-05-16T05:02:08.285Z,1.00
2023-05-16T05:04:36.784Z,1.00
2023-05-16T05:07:05.812Z,1.00
2023-05-16T05:09:35.841Z,1.00
2023-05-16T05:12:04.367Z,1.00
2023-05-16T05:14:32.820Z,1.00
2023-05-16T05:17:01.661Z,1.00
2023-05-16T05:19:30.403Z,1.00
2023-05-16T05:21:59.446Z,1.00
2023-05-16T05:24:28.175Z,1.00
2023-05-16T05:26:58.810Z,1.00
2023-05-16T05:29:27.652Z,1.00
2023-05-16T05:31:56.135Z,99.90
2023-05-16T05:34:24.360Z,99.90
2023-05-16T05:36:52.933Z,1.00
2023-05-16T05:39:21.459Z,1.00
2023-05-16T05:41:49.974Z,1.00
2023-05-16T05:44:19.926Z,1.00
2023-05-16T05:46:48.815Z,99.90
2023-05-16T05:49:17.309Z,99.90
2023-05-16T05:51:45.591Z,99.90
2023-05-16T05:54:14.226Z,99.90
2023-05-16T05:56:44.313Z,99.90
2023-05-16T05:59:14.006Z,99.90
2023-05-16T06:01:46.137Z,99.90
2023-05-16T06:04:14.746Z,99.90
2023-05-16T06:06:43.356Z,99.90
2023-05-16T06:09:12.626Z,99.90
2023-05-16T06:11:41.709Z,1.00
2023-05-16T06:14:10.207Z,1.00
2023-05-16T06:16:40.541Z,1.00
2023-05-16T06:19:12.480Z,1.00
2023-05-16T06:21:41.188Z,1.00
2023-05-16T06:24:09.727Z,1.00
2023-05-16T06:26:38.305Z,1.00
2023-05-16T06:29:06.560Z,1.00
2023-05-16T06:31:35.032Z,1.00
2023-05-16T06:34:03.635Z,1.00
2023-05-16T06:36:34.284Z,1.00
2023-05-16T06:39:02.674Z,99.90
2023-05-16T06:41:31.142Z,1.00
2023-05-16T06:44:00.286Z,99.90
2023-05-16T06:46:29.016Z,99.90
2023-05-16T06:48:57.828Z,99.90
2023-05-16T06:51:26.569Z,99.90
2023-05-16T06:53:56.422Z,99.90
2023-05-16T06:56:25.452Z,1.00
2023-05-16T06:58:53.850Z,1.00
2023-05-16T07:01:22.407Z,1.00
2023-05-16T07:03:51.607Z,1.00
2023-05-16T07:06:19.946Z,1.00
2023-05-16T07:08:48.601Z,99.90
2023-05-16T07:11:18.336Z,99.90
2023-05-16T07:13:47.323Z,99.90
2023-05-16T07:16:16.122Z,99.90
2023-05-16T07:18:44.648Z,99.90
2023-05-16T07:21:13.036Z,99.90
2023-05-16T07:23:41.776Z,99.90
2023-05-16T07:26:10.963Z,99.90
2023-05-16T07:28:41.068Z,99.90
2023-05-16T07:31:09.861Z,99.90
2023-05-16T07:33:38.609Z,99.90
2023-05-16T07:38:43.752Z,99.90
2023-05-16T07:41:12.394Z,99.90
2023-05-16T07:43:42.836Z,99.90
2023-05-16T07:46:12.138Z,99.90
2023-05-16T07:48:41.130Z,99.90
2023-05-16T07:51:10.224Z,99.90
2023-05-16T07:53:38.900Z,99.90
2023-05-16T07:56:08.781Z,99.90
2023-05-16T07:58:37.612Z,99.90
2023-05-16T08:01:08.044Z,99.90
2023-05-16T08:03:37.439Z,99.90
2023-05-16T08:06:06.598Z,99.90
2023-05-16T08:08:35.289Z,99.90
2023-05-16T08:11:03.748Z,99.90
2023-05-16T08:13:32.270Z,99.90
2023-05-16T08:16:01.225Z,99.90
2023-05-16T08:18:31.659Z,99.90
2023-05-16T08:21:00.655Z,99.90
2023-05-16T08:23:29.419Z,99.90
2023-05-16T08:25:58.898Z,99.90
2023-05-16T08:28:27.777Z,99.90
2023-05-16T08:30:56.588Z,99.90
2023-05-16T08:33:25.151Z,99.90
2023-05-16T08:35:55.323Z,99.90
2023-05-16T08:38:23.894Z,99.90
2023-05-16T08:40:52.591Z,99.90
2023-05-16T08:43:21.122Z,99.90
2023-05-16T08:45:49.593Z,50.00
2023-05-16T08:48:21.084Z,89.70
2023-05-16T08:50:49.791Z,76.40
2023-05-16T08:53:25.579Z,30.00
2023-05-16T08:55:57.346Z,1.00
2023-05-16T08:58:26.961Z,1.00
2023-05-16T09:00:56.421Z,1.00
2023-05-16T09:03:25.972Z,1.00
2023-05-16T09:05:54.554Z,1.00
2023-05-16T09:08:25.252Z,1.00
2023-05-16T09:10:54.055Z,1.00
2023-05-16T09:13:22.618Z,1.00
2023-05-16T09:16:10.663Z,1.00
2023-05-16T09:18:39.884Z,1.00
2023-05-16T09:21:09.080Z,1.00
2023-05-16T09:23:40.736Z,1.00
2023-05-16T09:26:09.255Z,1.00
2023-05-16T09:28:40.169Z,1.00
2023-05-16T09:31:22.915Z,1.00
2023-05-16T09:33:51.655Z,1.00
2023-05-16T09:36:20.461Z,1.00
2023-05-16T09:38:53.066Z,1.00
2023-05-16T09:41:23.576Z,1.00
2023-05-16T09:43:54.935Z,1.00
2023-05-16T09:46:28.084Z,1.00
2023-05-16T09:48:58.127Z,1.00
2023-05-16T09:51:28.016Z,1.00
2023-05-16T09:54:00.710Z,1.00
2023-05-16T09:56:30.595Z,1.00
2023-05-16T09:58:59.229Z,1.00
2023-05-16T10:01:28.029Z,1.00
2023-05-16T10:03:57.720Z,1.00
2023-05-16T10:06:27.318Z,1.00
2023-05-16T10:08:57.732Z,1.00
2023-05-16T10:11:28.349Z,1.00
2023-05-16T10:13:57.277Z,52.80
2023-05-16T10:16:27.507Z,99.90
2023-05-16T10:18:58.644Z,99.90
2023-05-16T10:21:30.095Z,99.90
2023-05-16T10:24:04.829Z,99.90
2023-05-16T10:26:34.748Z,99.90
2023-05-16T10:29:04.337Z,1.00
2023-05-16T10:31:32.929Z,1.00
2023-05-16T10:34:02.396Z,1.00
2023-05-16T10:36:33.036Z,1.00
2023-05-16T10:39:05.412Z,99.90
2023-05-16T10:41:35.149Z,99.90
2023-05-16T10:44:05.044Z,99.90
2023-05-16T10:46:34.107Z,1.00
2023-05-16T10:49:21.852Z,1.00
2023-05-16T10:52:05.581Z,1.00
2023-05-16T10:54:40.768Z,1.00
2023-05-16T10:57:12.372Z,1.00
2023-05-16T10:59:47.006Z,1.00
2023-05-16T11:02:30.451Z,1.00
2023-05-16T11:05:00.546Z,1.00
2023-05-16T11:07:34.137Z,1.00
2023-05-16T11:10:09.932Z,7.20
2023-05-16T11:12:40.461Z,99.90
2023-05-16T11:15:25.174Z,99.90
2023-05-16T11:18:06.661Z,99.90
2023-05-16T11:20:37.366Z,99.90
2023-05-16T11:23:26.918Z,99.90
2023-05-16T11:26:01.106Z,99.90
2023-05-16T11:28:30.532Z,99.90
2023-05-16T11:31:01.137Z,99.90
2023-05-16T11:33:35.573Z,99.90
2023-05-16T11:36:15.786Z,99.90
2023-05-16T11:38:45.035Z,22.30
2023-05-16T11:41:17.717Z,1.00
2023-05-16T11:43:47.305Z,1.00
2023-05-16T11:46:17.160Z,1.00
2023-05-16T11:48:47.678Z,1.00
2023-05-16T11:51:21.197Z,1.00
2023-05-16T11:53:51.023Z,1.00
2023-05-16T11:56:22.404Z,1.00
2023-05-16T11:58:51.899Z,1.00
2023-05-16T12:01:20.638Z,1.00
2023-05-16T12:03:57.640Z,1.00
2023-05-16T12:06:26.777Z,1.00
2023-05-16T12:08:55.348Z,1.00
2023-05-16T12:11:26.706Z,1.00
2023-05-16T12:13:55.406Z,1.00
2023-05-16T12:16:24.820Z,1.00
2023-05-16T12:18:53.561Z,1.00
2023-05-16T12:21:22.410Z,1.00
2023-05-16T12:23:51.286Z,1.00
2023-05-16T12:26:30.844Z,1.00
2023-05-16T12:29:00.971Z,1.00
2023-05-16T12:31:32.601Z,1.00
2023-05-16T12:34:01.432Z,1.00
2023-05-16T12:36:34.987Z,1.00
2023-05-16T12:39:05.201Z,1.00
2023-05-16T12:41:42.808Z,1.00
2023-05-16T12:44:17.602Z,99.90
2023-05-16T12:46:47.270Z,1.00
2023-05-16T12:49:16.158Z,1.00
2023-05-16T12:51:50.983Z,1.00
2023-05-16T12:54:20.613Z,99.90
2023-05-16T12:56:51.090Z,99.90
2023-05-16T12:59:20.506Z,99.90
2023-05-16T13:01:49.406Z,99.90
2023-05-16T13:04:20.295Z,99.90
2023-05-16T13:09:21.343Z,99.90
2023-05-16T13:11:52.801Z,99.90
2023-05-16T13:14:21.309Z,99.90
2023-05-16T13:16:50.012Z,99.90
2023-05-16T13:19:18.893Z,99.90
2023-05-16T13:21:47.482Z,1.00
2023-05-16T13:24:15.861Z,1.00
2023-05-16T13:26:44.551Z,31.20
2023-05-16T13:29:14.957Z,48.40
2023-05-16T13:31:46.758Z,99.90
2023-05-16T13:34:15.169Z,99.90
2023-05-16T13:36:54.071Z,99.90
2023-05-16T13:39:24.021Z,99.90
2023-05-16T13:41:53.151Z,1.00
2023-05-16T13:44:23.870Z,1.00
2023-05-16T13:46:52.246Z,1.00
2023-05-16T13:49:21.091Z,1.00
2023-05-16T13:51:50.024Z,95.80
2023-05-16T13:54:18.826Z,99.90
2023-05-16T13:56:47.685Z,99.90
2023-05-16T13:59:23.252Z,99.90
2023-05-16T14:01:57.777Z,99.90
2023-05-16T14:04:27.368Z,99.90
2023-05-16T14:06:56.848Z,1.00
2023-05-16T14:09:25.375Z,99.90
2023-05-16T14:11:53.922Z,99.90
2023-05-16T14:14:22.557Z,1.00
2023-05-16T14:16:51.679Z,99.90
2023-05-16T14:19:22.191Z,99.90
2023-05-16T14:21:51.424Z,99.90
2023-05-16T14:24:20.705Z,99.90
2023-05-16T14:26:49.915Z,99.90
2023-05-16T14:29:20.983Z,99.90
2023-05-16T14:31:51.097Z,99.90
2023-05-16T14:34:22.409Z,99.90
2023-05-16T14:36:52.891Z,99.90
2023-05-16T14:39:21.724Z,99.90
2023-05-16T14:41:50.661Z,99.90
2023-05-16T14:44:20.580Z,1.00
2023-05-16T14:46:51.658Z,1.00
2023-05-16T14:49:22.292Z,99.90
2023-05-16T14:51:51.786Z,99.90
2023-05-16T14:54:21.604Z,1.00
2023-05-16T14:56:50.485Z,99.90
2023-05-16T14:59:20.530Z,99.90
2023-05-16T15:01:49.965Z,99.90
2023-05-16T15:04:18.356Z,99.90
2023-05-16T15:06:49.140Z,99.90
2023-05-16T15:09:19.154Z,1.00
2023-05-16T15:11:47.864Z,99.90
2023-05-16T15:14:16.910Z,1.00
2023-05-16T15:16:47.304Z,1.00
2023-05-16T15:19:17.200Z,1.00
2023-05-16T15:21:48.170Z,1.00
2023-05-16T15:24:17.488Z,1.00
2023-05-16T15:26:46.361Z,99.90
2023-05-16T15:29:15.964Z,1.00
2023-05-16T15:31:44.537Z,1.00
2023-05-16T15:34:14.034Z,1.00
2023-05-16T15:36:42.715Z,1.00
2023-05-16T15:39:12.871Z,1.00
2023-05-16T15:42:01.182Z,1.00
2023-05-16T15:44:30.621Z,43.20
2023-05-16T15:46:59.132Z,99.90
2023-05-16T15:49:27.884Z,99.90
2023-05-16T15:51:59.685Z,99.90
2023-05-16T15:54:30.507Z,99.90
2023-05-16T15:56:59.268Z,99.90
2023-05-16T15:59:28.676Z,99.90
2023-05-16T16:01:57.088Z,1.00
2023-05-16T16:04:25.535Z,99.90
2023-05-16T16:06:53.610Z,99.90
2023-05-16T16:09:21.763Z,99.90
2023-05-16T16:11:56.011Z,99.90
2023-05-16T16:14:24.808Z,99.90
2023-05-16T16:16:52.956Z,99.90
2023-05-16T16:19:21.227Z,99.90
2023-05-16T16:21:49.542Z,99.90
2023-05-16T16:24:17.635Z,99.90
2023-05-16T16:26:46.253Z,1.00
2023-05-16T16:29:15.750Z,1.00
2023-05-16T16:31:43.888Z,99.90
2023-05-16T16:34:11.963Z,99.90
2023-05-16T16:36:40.397Z,1.00
2023-05-16T16:39:10.379Z,1.00
2023-05-16T16:41:38.545Z,1.00
2023-05-16T16:44:06.871Z,1.00
2023-05-16T16:46:36.831Z,1.00
2023-05-16T16:49:05.431Z,1.00
2023-05-16T16:51:35.927Z,1.00
2023-05-16T16:54:04.093Z,1.00
2023-05-16T16:56:32.318Z,1.00
2023-05-16T16:59:00.481Z,1.00
2023-05-16T17:01:32.066Z,1.00
2023-05-16T17:04:02.153Z,1.00
2023-05-16T17:06:30.812Z,1.00
2023-05-16T17:09:02.342Z,1.00
2023-05-16T17:11:30.850Z,1.00
2023-05-16T17:13:59.652Z,1.00
2023-05-16T17:16:29.245Z,1.00
2023-05-16T17:18:57.423Z,1.00
2023-05-16T17:21:28.129Z,1.00
2023-05-16T17:23:58.100Z,1.00
2023-05-16T17:26:27.404Z,1.00
2023-05-16T17:28:56.428Z,1.00
2023-05-16T17:31:24.565Z,1.00
2023-05-16T17:33:53.250Z,1.00
2023-05-16T17:36:21.824Z,1.00
2023-05-16T17:38:51.226Z,1.00
2023-05-16T17:41:20.694Z,1.00
2023-05-16T17:43:48.989Z,1.00
2023-05-16T17:46:17.200Z,38.70
2023-05-16T17:48:45.531Z,1.00
2023-05-16T17:51:13.650Z,99.90
2023-05-16T17:53:41.750Z,99.90
2023-05-16T17:56:11.264Z,99.90
2023-05-16T17:58:39.579Z,1.00
2023-05-16T18:01:09.378Z,1.00
2023-05-16T18:03:38.692Z,73.60
2023-05-16T18:06:07.011Z,1.00
2023-05-16T18:08:35.359Z,1.00
2023-05-16T18:11:03.468Z,1.00
2023-05-16T18:13:33.012Z,1.00
2023-05-16T18:16:01.194Z,1.00
2023-05-16T18:18:29.398Z,1.00
2023-05-16T18:20:57.992Z,1.00
2023-05-16T18:23:26.201Z,1.00
2023-05-16T18:25:54.475Z,1.00
2023-05-16T18:28:22.916Z,1.00
2023-05-16T18:30:52.537Z,1.00
2023-05-16T18:33:20.906Z,1.00
2023-05-16T18:35:49.341Z,1.00
2023-05-16T18:38:31.453Z,1.00
2023-05-16T18:41:00.669Z,1.00
2023-05-16T18:43:29.102Z,1.00
2023-05-16T18:45:58.869Z,1.00
2023-05-16T18:48:27.297Z,1.00
2023-05-16T18:50:55.908Z,1.00
2023-05-16T18:53:24.141Z,1.00
2023-05-16T18:55:52.358Z,1.00
2023-05-16T18:58:20.548Z,1.00
2023-05-16T19:00:48.778Z,1.00
2023-05-16T19:03:18.553Z,1.00
2023-05-16T19:05:47.574Z,1.00
2023-05-16T19:08:16.436Z,1.00
2023-05-16T19:10:44.940Z,1.00
2023-05-16T19:13:13.185Z,1.00
2023-05-16T19:15:41.310Z,1.00
2023-05-16T19:18:09.582Z,1.00
2023-05-16T19:20:39.371Z,1.00
2023-05-16T19:23:07.681Z,1.00
2023-05-16T19:25:35.974Z,1.00
2023-05-16T19:28:04.310Z,1.00
2023-05-16T19:30:32.553Z,39.10
2023-05-16T19:33:00.778Z,99.90
2023-05-16T19:35:29.234Z,1.00
2023-05-16T19:37:58.951Z,1.00
2023-05-16T19:40:27.239Z,1.00
2023-05-16T19:42:55.344Z,1.00
2023-05-16T19:45:24.418Z,1.00
2023-05-16T19:47:52.757Z,1.00
2023-05-16T19:50:22.022Z,1.00
2023-05-16T19:52:50.259Z,1.00
2023-05-16T19:55:19.879Z,1.00
2023-05-16T19:57:47.988Z,1.00
2023-05-16T20:00:17.264Z,1.00
2023-05-16T20:02:45.678Z,1.00
2023-05-16T20:05:14.492Z,1.00
2023-05-16T20:07:42.749Z,1.00
2023-05-16T20:10:11.478Z,1.00
2023-05-16T20:12:41.236Z,1.00
2023-05-16T20:15:10.990Z,1.00
2023-05-16T20:17:41.437Z,1.00
2023-05-16T20:20:11.424Z,1.00
2023-05-16T20:22:41.444Z,1.00
2023-05-16T20:25:11.710Z,1.00
2023-05-16T20:27:42.247Z,1.00
2023-05-16T20:30:12.005Z,1.00
2023-05-16T20:32:40.252Z,1.00
2023-05-16T20:35:10.701Z,1.00
2023-05-16T20:37:39.889Z,1.00
2023-05-16T20:40:09.281Z,1.00
2023-05-16T20:42:37.553Z,1.00
2023-05-16T20:45:08.097Z,1.00
2023-05-16T20:47:36.244Z,1.00
2023-05-16T20:50:04.604Z,1.00
2023-05-16T20:52:32.774Z,1.00
2023-05-16T20:55:01.482Z,1.00
2023-05-16T20:57:29.773Z,1.00
2023-05-16T20:59:57.887Z,1.00
2023-05-16T21:02:27.322Z,1.00
2023-05-16T21:04:56.190Z,1.00
2023-05-16T21:07:26.214Z,1.00
2023-05-16T21:09:54.378Z,1.00
2023-05-16T21:12:22.593Z,1.00
2023-05-16T21:14:50.671Z,1.00
2023-05-16T21:17:18.822Z,1.00
2023-05-16T21:19:48.320Z,1.00
2023-05-16T21:22:16.408Z,99.90
2023-05-16T21:24:44.506Z,99.90
2023-05-16T21:27:12.534Z,99.90
2023-05-16T21:29:40.703Z,99.90
2023-05-16T21:32:09.190Z,99.90
2023-05-16T21:34:37.354Z,99.90
2023-05-16T21:37:08.215Z,99.90
2023-05-16T21:39:36.380Z,99.90
2023-05-16T21:42:04.847Z,99.90
2023-05-16T21:44:33.035Z,99.90
2023-05-16T21:47:01.101Z,99.90
2023-05-16T21:49:29.176Z,99.90
2023-05-16T21:51:57.275Z,99.90
2023-05-16T21:54:26.665Z,99.90
2023-05-16T21:56:54.682Z,99.90
2023-05-16T21:59:22.938Z,99.90
2023-05-16T22:01:51.062Z,99.90
2023-05-16T22:04:19.187Z,99.90
2023-05-16T22:06:47.298Z,99.90
2023-05-16T22:09:15.437Z,99.90
2023-05-16T22:11:44.858Z,1.00
2023-05-16T22:14:13.092Z,91.60
2023-05-16T22:16:41.228Z,21.80
2023-05-16T22:19:09.444Z,76.10
2023-05-16T22:21:37.707Z,1.00
2023-05-16T22:24:06.453Z,27.40
2023-05-16T22:26:35.156Z,38.40
2023-05-16T22:29:04.541Z,22.90
2023-05-16T22:31:32.728Z,69.40
2023-05-16T22:34:01.018Z,4.30
2023-05-16T22:36:29.316Z,1.00
2023-05-16T22:38:57.426Z,1.00
2023-05-16T22:41:25.656Z,17.00
2023-05-16T22:43:53.698Z,1.00
2023-05-16T22:46:23.212Z,1.00
2023-05-16T22:48:51.313Z,1.00
2023-05-16T22:51:19.408Z,1.00
2023-05-16T22:53:47.485Z,1.00
2023-05-16T22:56:15.537Z,1.00
2023-05-16T22:58:43.670Z,1.00
2023-05-16T23:01:11.855Z,1.00
2023-05-16T23:03:41.413Z,1.00
2023-05-16T23:06:09.753Z,1.00
2023-05-16T23:08:37.938Z,1.00
2023-05-16T23:11:06.226Z,1.00
2023-05-16T23:13:34.357Z,1.00
2023-05-16T23:16:02.602Z,1.00
2023-05-16T23:18:30.912Z,1.00
2023-05-16T23:21:00.523Z,1.00
2023-05-16T23:23:28.666Z,1.00
2023-05-16T23:25:56.879Z,1.00
2023-05-16T23:28:25.085Z,1.00
2023-05-16T23:30:53.081Z,1.00
2023-05-16T23:33:21.271Z,1.00
2023-05-16T23:35:49.480Z,1.00
2023-05-16T23:38:19.005Z,1.00
2023-05-16T23:40:47.219Z,1.00
2023-05-16T23:43:15.697Z,1.00
2023-05-16T23:45:43.764Z,1.00
2023-05-16T23:48:12.038Z,1.00
2023-05-16T23:50:40.161Z,1.00
2023-05-16T23:53:08.311Z,1.00
2023-05-16T23:55:37.886Z,1.00
2023-05-16T23:58:06.034Z,1.00
